Time;durP1;ratioP1;P1;durP2;ratioP2;P2;SDS_P1;SDS_P2;PMS_P1;PMS_P2;Temp;Humidity;BMP_temperature;BMP_pressure;BME280_temperature;BME280_humidity;BME280_pressure;Samples;Min_cycle;Max_cycle;Signal;HPM_P1;HPM_P2
2024/01/30 00:02:07;;;;;;;44.53;14.48;;;11.00;99.90;;;;;;5098561;28;20494;-70
2024/01/30 00:04:34;;;;;;;37.92;12.77;;;11.00;99.90;;;;;;5086522;28;20040;-63
2024/01/30 00:07:03;;;;;;;38.53;12.38;;;11.10;99.90;;;;;;5074321;28;20048;-63
2024/01/30 00:09:31;;;;;;;32.33;13.38;;;11.10;99.90;;;;;;5090034;28;20060;-64
2024/01/30 00:11:59;;;;;;;42.65;12.95;;;11.10;99.90;;;;;;5088527;28;20044;-63
2024/01/30 00:14:26;;;;;;;34.53;12.57;;;11.10;99.90;;;;;;5088608;28;20059;-65
2024/01/30 00:16:54;;;;;;;39.83;12.88;;;11.00;99.90;;;;;;5087901;28;20047;-71
2024/01/30 00:19:22;;;;;;;37.47;14.90;;;11.10;99.90;;;;;;5102812;28;20043;-63
2024/01/30 00:21:50;;;;;;;51.60;14.85;;;11.10;99.90;;;;;;5075345;28;20040;-64
2024/01/30 00:24:17;;;;;;;37.83;12.65;;;11.00;99.90;;;;;;5088701;28;20044;-63
2024/01/30 00:26:45;;;;;;;45.42;13.73;;;11.10;99.90;;;;;;5088676;28;20047;-63
2024/01/30 00:29:19;;;;;;;36.83;12.60;;;11.10;99.90;;;;;;5082984;28;20066;-63
2024/01/30 00:31:47;;;;;;;44.67;12.85;;;11.10;99.90;;;;;;5099409;28;20044;-62
2024/01/30 00:34:14;;;;;;;41.95;12.18;;;11.10;99.90;;;;;;5088268;28;20051;-63
2024/01/30 00:36:42;;;;;;;37.38;12.15;;;11.10;99.90;;;;;;5072887;28;20044;-62
2024/01/30 00:39:11;;;;;;;35.67;11.15;;;11.10;99.90;;;;;;5077844;28;20404;-63
2024/01/30 00:41:39;;;;;;;36.80;12.17;;;11.10;99.90;;;;;;5076009;28;20044;-63
2024/01/30 00:44:07;;;;;;;30.83;11.15;;;11.00;99.90;;;;;;5081717;28;20300;-65
2024/01/30 00:46:34;;;;;;;45.00;11.80;;;11.10;99.90;;;;;;5088618;28;20560;-74
2024/01/30 00:49:02;;;;;;;38.47;10.70;;;11.10;99.90;;;;;;5097882;28;20051;-71
2024/01/30 00:51:30;;;;;;;33.08;10.57;;;11.10;99.90;;;;;;5083400;28;20051;-67
2024/01/30 00:53:58;;;;;;;30.27;11.30;;;11.10;99.90;;;;;;5089115;28;20047;-68
2024/01/30 00:56:25;;;;;;;32.13;10.80;;;11.00;99.90;;;;;;5088482;28;20067;-69
2024/01/30 00:58:53;;;;;;;29.85;11.07;;;11.10;99.90;;;;;;5097691;28;20035;-68
2024/01/30 01:01:21;;;;;;;29.77;12.50;;;11.00;99.90;;;;;;5103356;28;20044;-62
2024/01/30 01:03:48;;;;;;;28.92;10.15;;;11.00;99.90;;;;;;5084752;28;20036;-62
2024/01/30 01:06:16;;;;;;;13.27;6.30;;;11.00;99.90;;;;;;5083502;28;20480;-63
2024/01/30 01:08:44;;;;;;;5.22;3.35;;;11.00;99.90;;;;;;5085064;28;20051;-64
2024/01/30 01:11:12;;;;;;;2.05;1.70;;;10.80;99.90;;;;;;5100463;28;20040;-62
2024/01/30 01:13:40;;;;;;;2.92;2.15;;;10.60;99.90;;;;;;5087730;28;20051;-69
2024/01/30 01:16:08;;;;;;;3.00;2.03;;;10.20;99.90;;;;;;5088124;28;20051;-62
2024/01/30 01:18:36;;;;;;;3.00;1.95;;;9.90;99.90;;;;;;5094866;28;20054;-62
2024/01/30 01:21:04;;;;;;;2.58;1.90;;;9.60;99.90;;;;;;5089883;28;20051;-63
2024/01/30 01:23:32;;;;;;;3.38;2.30;;;9.30;99.90;;;;;;5088052;28;20063;-62
2024/01/30 01:26:00;;;;;;;4.25;2.22;;;9.10;99.90;;;;;;5081798;28;20063;-62
2024/01/30 01:28:28;;;;;;;3.45;2.15;;;8.90;99.90;;;;;;5086101;28;20427;-63
2024/01/30 01:30:59;;;;;;;2.13;1.77;;;8.80;99.90;;;;;;5108182;28;20044;-61
2024/01/30 01:33:27;;;;;;;2.80;2.20;;;8.60;99.90;;;;;;5076606;28;20044;-62
2024/01/30 01:35:54;;;;;;;3.53;2.25;;;8.50;99.90;;;;;;5066563;28;20059;-62
2024/01/30 01:38:22;;;;;;;3.35;2.38;;;8.40;99.90;;;;;;5083751;28;20051;-62
2024/01/30 01:40:51;;;;;;;3.92;2.50;;;8.40;99.90;;;;;;5081578;28;20048;-65
2024/01/30 01:43:19;;;;;;;3.95;2.80;;;8.30;99.90;;;;;;5090532;28;20044;-64
2024/01/30 01:45:46;;;;;;;4.28;2.97;;;8.20;99.90;;;;;;5091900;28;20434;-63
2024/01/30 01:48:15;;;;;;;6.38;2.53;;;8.10;99.90;;;;;;5094365;28;20054;-71
2024/01/30 01:50:43;;;;;;;4.90;3.15;;;8.10;99.90;;;;;;5085588;28;20055;-68
2024/01/30 01:53:13;;;;;;;7.93;3.03;;;8.00;99.90;;;;;;5088785;28;20075;-63
2024/01/30 01:55:40;;;;;;;4.82;3.40;;;8.00;99.90;;;;;;5085245;28;20051;-73
2024/01/30 01:58:10;;;;;;;4.95;3.47;;;8.00;99.90;;;;;;5076714;28;20063;-66
2024/01/30 02:00:41;;;;;;;;;;;7.90;99.90;;;;;;5095098;28;20048;-66
2024/01/30 02:03:13;;;;;;;5.80;3.60;;;7.90;99.90;;;;;;5090587;28;19920;-67
2024/01/30 02:05:42;;;;;;;6.63;3.75;;;7.80;99.90;;;;;;5086546;28;20045;-72
2024/01/30 02:08:10;;;;;;;5.15;3.20;;;7.80;99.90;;;;;;5073246;28;20059;-72
2024/01/30 02:10:38;;;;;;;5.03;3.60;;;7.80;99.90;;;;;;5089396;28;20056;-74
2024/01/30 02:13:05;;;;;;;4.93;3.33;;;7.80;99.90;;;;;;5088097;28;20049;-73
2024/01/30 02:15:33;;;;;;;4.82;3.25;;;7.80;99.90;;;;;;5084298;28;20040;-73
2024/01/30 02:18:01;;;;;;;3.70;2.67;;;7.70;99.90;;;;;;5091827;28;20056;-68
2024/01/30 02:20:31;;;;;;;3.67;2.50;;;7.70;99.90;;;;;;5092235;28;20048;-71
2024/01/30 02:23:03;;;;;;;2.90;2.25;;;7.70;99.90;;;;;;5088433;28;20399;-70
2024/01/30 02:25:38;;;;;;;3.53;2.38;;;7.70;99.90;;;;;;5089961;28;20048;-70
2024/01/30 02:28:06;;;;;;;2.88;2.33;;;7.70;99.90;;;;;;5082732;28;20531;-67
2024/01/30 02:30:34;;;;;;;4.05;2.80;;;7.60;99.90;;;;;;5086010;28;20040;-71
2024/01/30 02:33:01;;;;;;;2.78;2.28;;;7.60;99.90;;;;;;5075489;28;20138;-67
2024/01/30 02:35:29;;;;;;;3.78;3.42;;;7.60;99.90;;;;;;5091044;28;20056;-70
2024/01/30 02:37:57;;;;;;;3.45;3.05;;;7.60;99.90;;;;;;5080800;28;20416;-73
2024/01/30 02:40:24;;;;;;;2.78;2.47;;;7.60;99.90;;;;;;5084089;28;20043;-67
2024/01/30 02:42:52;;;;;;;3.05;2.17;;;7.60;99.90;;;;;;5090546;28;20066;-69
2024/01/30 02:45:20;;;;;;;7.22;2.35;;;7.50;99.90;;;;;;5081555;28;20037;-66
2024/01/30 02:47:47;;;;;;;3.92;2.22;;;7.50;99.90;;;;;;5080522;28;20053;-68
2024/01/30 02:50:16;;;;;;;4.28;2.40;;;7.40;99.90;;;;;;5094043;28;20044;-71
2024/01/30 02:52:44;;;;;;;4.60;2.13;;;7.40;99.90;;;;;;5087523;28;20040;-69
2024/01/30 02:55:12;;;;;;;5.90;2.75;;;7.40;99.90;;;;;;5084629;28;20048;-70
2024/01/30 02:57:40;;;;;;;6.30;2.45;;;7.40;99.90;;;;;;5091996;28;20604;-66
2024/01/30 03:00:09;;;;;;;3.10;2.28;;;7.30;99.90;;;;;;5075508;28;20423;-68
2024/01/30 03:02:37;;;;;;;5.53;3.08;;;7.30;99.90;;;;;;5080730;28;20036;-71
2024/01/30 03:05:06;;;;;;;5.05;2.63;;;7.20;99.90;;;;;;5072797;28;20048;-74
2024/01/30 03:07:33;;;;;;;8.30;3.30;;;7.20;99.90;;;;;;5093610;28;20051;-75
2024/01/30 03:10:02;;;;;;;10.07;3.45;;;7.10;99.90;;;;;;5089992;28;20044;-75
2024/01/30 03:12:29;;;;;;;9.52;2.70;;;7.10;99.90;;;;;;5082173;28;20484;-70
2024/01/30 03:14:57;;;;;;;6.72;2.50;;;7.00;99.90;;;;;;5078034;28;20047;-76
2024/01/30 03:17:25;;;;;;;5.97;2.40;;;7.00;99.90;;;;;;5088811;28;20062;-66
2024/01/30 03:19:52;;;;;;;7.60;2.15;;;6.90;99.90;;;;;;5091458;28;20043;-71
2024/01/30 03:22:20;;;;;;;12.50;2.88;;;6.80;99.90;;;;;;5091981;28;20043;-71
2024/01/30 03:24:48;;;;;;;8.25;2.67;;;6.80;99.90;;;;;;5084448;28;20480;-62
2024/01/30 03:27:15;;;;;;;6.90;2.42;;;6.80;99.90;;;;;;5071161;28;20063;-68
2024/01/30 03:29:43;;;;;;;9.25;2.90;;;6.70;99.90;;;;;;5086251;28;20040;-65
2024/01/30 03:32:11;;;;;;;13.57;3.17;;;6.70;99.90;;;;;;5088522;28;20048;-66
2024/01/30 03:34:39;;;;;;;6.97;2.70;;;6.70;99.90;;;;;;5072959;28;20055;-72
2024/01/30 03:37:07;;;;;;;6.80;2.60;;;6.70;99.90;;;;;;5071411;28;20047;-72
2024/01/30 03:39:36;;;;;;;15.00;3.33;;;6.70;99.90;;;;;;5072955;28;20056;-66
2024/01/30 03:42:04;;;;;;;10.13;2.80;;;6.60;99.90;;;;;;5079865;28;20048;-78
2024/01/30 03:44:31;;;;;;;8.77;2.72;;;6.60;99.90;;;;;;5091941;28;20360;-61
2024/01/30 03:46:59;;;;;;;8.95;3.20;;;6.60;99.90;;;;;;5092728;28;20675;-64
2024/01/30 03:49:26;;;;;;;5.03;2.22;;;6.60;99.90;;;;;;5092937;28;20399;-71
2024/01/30 03:51:54;;;;;;;10.50;3.05;;;6.60;99.90;;;;;;5082468;28;20044;-64
2024/01/30 03:54:22;;;;;;;7.00;2.38;;;6.60;99.90;;;;;;5086848;28;20047;-65
2024/01/30 03:56:50;;;;;;;10.32;2.50;;;6.50;99.90;;;;;;5090928;28;20055;-64
2024/01/30 03:59:22;;;;;;;8.60;1.95;;;6.50;99.90;;;;;;5089580;28;20051;-63
2024/01/30 04:01:51;;;;;;;4.93;2.13;;;6.40;99.90;;;;;;5077350;28;20044;-62
2024/01/30 04:04:19;;;;;;;11.65;3.58;;;6.40;99.90;;;;;;5090851;28;20055;-65
2024/01/30 04:06:47;;;;;;;6.03;1.90;;;6.30;99.90;;;;;;5074406;28;20045;-63
2024/01/30 04:09:15;;;;;;;7.15;3.05;;;6.30;99.90;;;;;;5072204;28;20060;-64
2024/01/30 04:11:42;;;;;;;6.88;1.42;;;6.20;99.90;;;;;;5084575;28;20502;-64
2024/01/30 04:14:10;;;;;;;7.88;1.77;;;6.20;99.90;;;;;;5101802;28;20055;-63
2024/01/30 04:16:38;;;;;;;8.85;1.88;;;6.20;99.90;;;;;;5080085;28;20047;-75
2024/01/30 04:19:06;;;;;;;4.43;1.75;;;6.10;99.90;;;;;;5078564;28;20044;-68
2024/01/30 04:21:33;;;;;;;8.80;2.00;;;6.10;99.90;;;;;;5081241;28;20052;-68
2024/01/30 04:24:01;;;;;;;12.52;2.83;;;6.10;99.90;;;;;;5089683;28;20516;-71
2024/01/30 04:26:28;;;;;;;9.68;2.13;;;6.10;99.90;;;;;;5062483;28;20052;-71
2024/01/30 04:28:56;;;;;;;9.10;1.92;;;6.10;99.90;;;;;;5079083;28;20036;-64
2024/01/30 04:31:24;;;;;;;10.75;2.42;;;6.10;99.90;;;;;;5078276;28;20071;-68
2024/01/30 04:33:51;;;;;;;11.65;2.47;;;6.10;99.90;;;;;;5078158;28;20059;-69
2024/01/30 04:36:19;;;;;;;6.03;1.80;;;6.10;99.90;;;;;;5071660;28;20048;-76
2024/01/30 04:38:47;;;;;;;10.65;2.22;;;6.10;99.90;;;;;;5075170;28;20052;-72
2024/01/30 04:41:14;;;;;;;8.55;1.98;;;6.10;99.90;;;;;;5077578;28;20048;-72
2024/01/30 04:43:42;;;;;;;9.27;2.22;;;6.10;99.90;;;;;;5083764;28;20044;-71
2024/01/30 04:46:10;;;;;;;12.50;3.20;;;6.10;99.90;;;;;;5079371;28;20041;-64
2024/01/30 04:48:38;;;;;;;17.48;3.33;;;6.10;99.90;;;;;;5082980;28;20040;-62
2024/01/30 04:51:06;;;;;;;21.90;4.65;;;6.10;99.90;;;;;;5075184;28;20051;-62
2024/01/30 04:53:33;;;;;;;11.93;3.38;;;6.10;99.90;;;;;;5088339;28;20036;-62
2024/01/30 04:56:01;;;;;;;9.73;4.63;;;6.00;99.90;;;;;;5079815;28;20059;-62
2024/01/30 04:58:29;;;;;;;19.00;4.30;;;6.00;99.90;;;;;;5081483;28;20052;-73
2024/01/30 05:00:56;;;;;;;13.05;2.70;;;6.00;99.90;;;;;;5089320;28;20391;-69
2024/01/30 05:03:25;;;;;;;8.98;2.58;;;6.00;99.90;;;;;;5087592;28;20047;-73
2024/01/30 05:05:53;;;;;;;13.45;4.72;;;6.00;99.90;;;;;;5075807;28;20053;-66
2024/01/30 05:08:21;;;;;;;10.07;2.72;;;6.00;99.90;;;;;;5077021;28;20048;-62
2024/01/30 05:10:48;;;;;;;10.25;2.53;;;6.00;99.90;;;;;;5079036;28;20044;-62
2024/01/30 05:13:16;;;;;;;12.02;3.25;;;5.90;99.90;;;;;;5086370;28;20052;-65
2024/01/30 05:15:44;;;;;;;9.13;2.13;;;5.90;99.90;;;;;;5089771;28;20044;-63
2024/01/30 05:18:11;;;;;;;8.52;2.15;;;5.80;99.90;;;;;;5084342;28;20051;-61
2024/01/30 05:20:39;;;;;;;7.15;2.42;;;5.80;99.90;;;;;;5073851;28;20040;-62
2024/01/30 05:23:07;;;;;;;10.57;2.08;;;5.80;99.90;;;;;;5079939;28;20040;-61
2024/01/30 05:25:34;;;;;;;4.30;1.60;;;5.80;99.90;;;;;;5076162;28;20044;-63
2024/01/30 05:28:02;;;;;;;6.90;2.30;;;5.80;99.90;;;;;;5079103;28;20053;-64
2024/01/30 05:30:30;;;;;;;3.10;1.13;;;5.80;99.90;;;;;;5090271;28;20055;-63
2024/01/30 05:32:58;;;;;;;4.32;1.45;;;5.80;99.90;;;;;;5087293;28;20044;-63
2024/01/30 05:35:25;;;;;;;3.35;1.33;;;5.70;99.90;;;;;;5091275;28;20040;-63
2024/01/30 05:37:53;;;;;;;9.20;1.52;;;5.70;99.90;;;;;;5079524;28;20049;-63
2024/01/30 05:40:21;;;;;;;5.88;1.52;;;5.70;99.90;;;;;;5072443;28;20051;-63
2024/01/30 05:42:48;;;;;;;5.47;1.30;;;5.60;99.90;;;;;;5084144;28;20044;-63
2024/01/30 05:45:16;;;;;;;6.18;1.05;;;5.60;99.90;;;;;;5091117;28;20040;-64
2024/01/30 05:47:43;;;;;;;5.68;1.35;;;5.60;99.90;;;;;;5076869;28;20044;-62
2024/01/30 05:50:11;;;;;;;8.75;1.58;;;5.50;99.90;;;;;;5087351;28;20055;-63
2024/01/30 05:52:39;;;;;;;4.72;1.33;;;5.50;99.90;;;;;;5074859;28;20495;-62
2024/01/30 05:55:07;;;;;;;8.93;1.88;;;5.50;99.90;;;;;;5080020;28;20040;-62
2024/01/30 05:57:35;;;;;;;11.38;1.92;;;5.40;99.90;;;;;;5070930;28;20048;-63
2024/01/30 06:00:04;;;;;;;5.93;0.85;;;5.40;99.90;;;;;;5087251;28;20044;-62
2024/01/30 06:02:33;;;;;;;7.32;0.98;;;5.40;99.90;;;;;;5077046;28;20386;-62
2024/01/30 06:05:01;;;;;;;5.47;1.10;;;5.40;99.90;;;;;;5084334;28;20044;-67
2024/01/30 06:07:28;;;;;;;8.75;1.30;;;5.30;99.90;;;;;;5088611;28;20075;-62
2024/01/30 06:10:02;;;;;;;8.45;0.63;;;5.30;99.90;;;;;;5107063;28;20036;-62
2024/01/30 06:12:30;;;;;;;7.53;1.15;;;5.30;99.90;;;;;;5100577;28;20052;-63
2024/01/30 06:14:58;;;;;;;5.72;1.17;;;5.30;99.90;;;;;;5075019;28;20044;-65
2024/01/30 06:17:26;;;;;;;10.55;1.08;;;5.30;99.90;;;;;;5080455;28;20133;-68
2024/01/30 06:19:54;;;;;;;8.38;1.00;;;5.20;99.90;;;;;;5080020;28;20048;-68
2024/01/30 06:22:21;;;;;;;5.15;1.08;;;5.20;99.90;;;;;;5075685;28;20407;-63
2024/01/30 06:24:49;;;;;;;3.30;0.85;;;5.20;99.90;;;;;;5078115;28;20048;-67
2024/01/30 06:27:17;;;;;;;6.05;0.90;;;5.20;99.90;;;;;;5087556;28;20403;-63
2024/01/30 06:29:46;;;;;;;4.07;1.35;;;5.20;99.90;;;;;;5071098;28;20049;-73
2024/01/30 06:32:14;;;;;;;6.03;1.40;;;5.20;99.90;;;;;;5084543;28;20395;-64
2024/01/30 06:34:44;;;;;;;3.65;0.90;;;5.20;99.90;;;;;;5109312;28;20047;-70
2024/01/30 06:37:12;;;;;;;7.47;1.70;;;5.10;99.90;;;;;;5096007;28;20051;-62
2024/01/30 06:39:39;;;;;;;3.55;1.05;;;5.20;99.90;;;;;;5078477;28;20044;-63
2024/01/30 06:42:07;;;;;;;3.58;1.25;;;5.20;99.90;;;;;;5089504;28;20048;-62
2024/01/30 06:44:35;;;;;;;12.32;2.95;;;5.20;99.90;;;;;;5091461;28;20389;-63
2024/01/30 06:47:02;;;;;;;5.25;1.55;;;5.20;99.90;;;;;;5087254;28;20040;-62
2024/01/30 06:49:30;;;;;;;5.30;1.50;;;5.20;99.90;;;;;;5072866;28;20044;-63
2024/01/30 06:51:58;;;;;;;9.57;2.20;;;5.20;99.90;;;;;;5073635;28;20522;-62
2024/01/30 06:54:25;;;;;;;6.30;2.17;;;5.20;99.90;;;;;;5088076;28;20052;-63
2024/01/30 06:56:53;;;;;;;3.47;2.10;;;5.10;99.90;;;;;;5090646;28;20059;-64
2024/01/30 06:59:21;;;;;;;14.15;2.65;;;5.20;99.90;;;;;;5085837;28;20055;-62
2024/01/30 07:01:49;;;;;;;7.63;2.53;;;5.20;99.90;;;;;;5077760;28;20044;-65
2024/01/30 07:04:18;;;;;;;10.45;2.47;;;5.20;99.90;;;;;;5075521;28;20860;-63
2024/01/30 07:06:46;;;;;;;10.55;3.15;;;5.20;99.90;;;;;;5065965;28;20499;-63
2024/01/30 07:09:14;;;;;;;13.43;3.38;;;5.20;99.90;;;;;;5080208;28;20542;-62
2024/01/30 07:11:41;;;;;;;6.10;2.15;;;5.10;99.90;;;;;;5077584;28;20131;-63
2024/01/30 07:14:09;;;;;;;13.43;3.13;;;5.10;99.90;;;;;;5095116;28;20543;-63
2024/01/30 07:16:37;;;;;;;9.18;3.17;;;5.20;99.90;;;;;;5090348;28;20036;-63
2024/01/30 07:19:04;;;;;;;16.60;5.50;;;5.10;99.90;;;;;;5078844;28;20049;-73
2024/01/30 07:21:32;;;;;;;12.43;4.43;;;5.10;99.90;;;;;;5078485;28;20048;-73
2024/01/30 07:24:00;;;;;;;14.05;6.03;;;5.10;99.90;;;;;;5084813;28;20415;-73
2024/01/30 07:26:27;;;;;;;11.40;5.97;;;5.20;99.90;;;;;;5088535;28;20044;-75
2024/01/30 07:28:58;;;;;;;14.40;5.63;;;5.10;99.90;;;;;;5089336;28;20063;-71
2024/01/30 07:31:25;;;;;;;18.70;7.05;;;5.10;99.90;;;;;;5075771;28;20059;-69
2024/01/30 07:33:56;;;;;;;15.75;6.22;;;5.10;99.90;;;;;;5085412;28;20400;-71
2024/01/30 07:36:24;;;;;;;18.98;7.15;;;5.10;99.90;;;;;;5081304;28;20399;-71
2024/01/30 07:38:54;;;;;;;18.50;5.43;;;5.10;99.90;;;;;;5069681;28;20055;-67
2024/01/30 07:41:22;;;;;;;14.40;5.53;;;5.10;99.90;;;;;;5093944;28;20118;-69
2024/01/30 07:43:50;;;;;;;12.13;5.88;;;5.10;99.90;;;;;;5092723;28;20059;-71
2024/01/30 07:46:18;;;;;;;6.38;4.53;;;5.10;99.90;;;;;;5088188;28;20055;-64
2024/01/30 07:48:46;;;;;;;9.90;4.43;;;5.10;99.90;;;;;;5083643;28;20067;-67
2024/01/30 07:51:14;;;;;;;17.15;6.53;;;5.10;99.90;;;;;;5069504;28;20048;-65
2024/01/30 07:53:41;;;;;;;15.35;4.97;;;5.10;99.90;;;;;;5083770;28;20179;-68
2024/01/30 07:56:09;;;;;;;7.45;4.50;;;5.10;99.90;;;;;;5083464;28;20043;-63
2024/01/30 07:58:37;;;;;;;14.35;7.18;;;5.20;99.90;;;;;;5085951;28;20040;-63
2024/01/30 08:01:05;;;;;;;20.23;8.05;;;5.10;99.90;;;;;;5064400;28;20044;-63
2024/01/30 08:03:34;;;;;;;14.88;7.88;;;5.20;99.90;;;;;;5092014;28;20453;-70
2024/01/30 08:06:02;;;;;;;16.20;7.03;;;5.10;99.90;;;;;;5092154;28;20600;-67
2024/01/30 08:08:29;;;;;;;8.75;4.80;;;5.20;99.90;;;;;;5083946;28;20047;-64
2024/01/30 08:10:57;;;;;;;13.00;5.00;;;5.10;99.90;;;;;;5085456;28;20048;-64
2024/01/30 08:13:25;;;;;;;12.52;4.78;;;5.20;99.90;;;;;;5086273;28;20391;-63
2024/01/30 08:15:52;;;;;;;13.88;4.57;;;5.20;99.90;;;;;;5084641;28;20071;-66
2024/01/30 08:18:20;;;;;;;12.30;5.25;;;5.20;99.90;;;;;;5085570;28;20044;-67
2024/01/30 08:20:49;;;;;;;13.73;5.00;;;5.20;99.90;;;;;;5085971;28;20062;-72
2024/01/30 08:23:16;;;;;;;7.78;3.80;;;5.20;99.90;;;;;;5080504;28;20040;-70
2024/01/30 08:25:44;;;;;;;12.18;3.90;;;5.20;99.90;;;;;;5085750;28;20048;-72
2024/01/30 08:28:12;;;;;;;10.35;3.80;;;5.20;99.90;;;;;;5080170;28;20047;-71
2024/01/30 08:30:40;;;;;;;13.98;2.95;;;5.20;99.90;;;;;;5070731;28;20201;-63
2024/01/30 08:33:07;;;;;;;7.30;2.28;;;5.20;99.90;;;;;;5083917;28;20040;-66
2024/01/30 08:35:35;;;;;;;4.45;1.15;;;5.20;99.90;;;;;;5084928;28;20059;-63
2024/01/30 08:38:03;;;;;;;11.27;1.92;;;5.20;99.90;;;;;;5086127;28;20040;-61
2024/01/30 08:40:31;;;;;;;5.00;2.42;;;5.20;99.90;;;;;;5081286;28;20040;-62
2024/01/30 08:42:59;;;;;;;7.20;2.80;;;5.20;99.90;;;;;;5084449;28;20046;-63
2024/01/30 08:45:26;;;;;;;6.22;3.17;;;5.20;99.90;;;;;;5105668;28;20052;-63
2024/01/30 08:47:54;;;;;;;10.25;4.28;;;5.20;99.90;;;;;;5086059;28;20048;-68
2024/01/30 08:50:22;;;;;;;14.50;5.28;;;5.20;99.90;;;;;;5074259;28;20481;-67
2024/01/30 08:52:53;;;;;;;16.15;5.82;;;5.20;99.90;;;;;;5080986;28;20043;-71
2024/01/30 08:55:20;;;;;;;11.93;5.28;;;5.20;99.90;;;;;;5088688;28;20055;-66
2024/01/30 08:57:48;;;;;;;10.90;5.88;;;5.20;99.90;;;;;;5092929;28;20055;-67
2024/01/30 09:00:16;;;;;;;16.08;6.72;;;5.30;99.90;;;;;;5108665;28;20311;-68
2024/01/30 09:02:44;;;;;;;16.30;7.80;;;5.30;99.90;;;;;;5099235;28;20052;-73
2024/01/30 09:05:12;;;;;;;17.17;6.60;;;5.30;99.90;;;;;;5076566;28;20454;-64
2024/01/30 09:07:40;;;;;;;16.42;6.18;;;5.30;99.90;;;;;;5072363;28;20044;-63
2024/01/30 09:10:08;;;;;;;9.43;6.32;;;5.30;99.90;;;;;;5086771;28;20048;-66
2024/01/30 09:12:40;;;;;;;8.45;5.40;;;5.30;99.90;;;;;;5087904;28;20041;-69
2024/01/30 09:15:09;;;;;;;7.85;4.40;;;5.40;99.90;;;;;;5086794;28;20054;-65
2024/01/30 09:17:37;;;;;;;5.97;3.25;;;5.40;99.90;;;;;;5088185;28;20051;-63
2024/01/30 09:20:05;;;;;;;7.53;2.90;;;5.40;99.90;;;;;;5078481;28;20048;-66
2024/01/30 09:22:34;;;;;;;3.53;2.33;;;5.40;99.90;;;;;;5078432;28;20044;-69
2024/01/30 09:25:01;;;;;;;5.60;2.28;;;5.40;99.90;;;;;;5086983;28;20044;-66
2024/01/30 09:27:29;;;;;;;4.38;2.33;;;5.40;99.90;;;;;;5082214;28;20491;-69
2024/01/30 09:29:57;;;;;;;7.25;2.13;;;5.40;99.90;;;;;;5108565;28;20047;-73
2024/01/30 09:32:24;;;;;;;6.45;2.10;;;5.40;99.90;;;;;;5101533;28;20114;-74
2024/01/30 09:34:52;;;;;;;5.30;1.98;;;5.40;99.90;;;;;;5080635;28;20048;-63
2024/01/30 09:37:20;;;;;;;8.27;2.63;;;5.40;99.90;;;;;;5069734;28;20484;-63
2024/01/30 09:39:50;;;;;;;9.27;3.80;;;5.40;99.90;;;;;;5088130;28;20063;-65
2024/01/30 09:42:36;;;;;;;5.50;2.30;;;5.40;99.90;;;;;;5086840;28;20040;-62
2024/01/30 09:45:05;;;;;;;6.93;2.88;;;5.40;99.90;;;;;;5074455;28;20067;-65
2024/01/30 09:47:43;;;;;;;11.23;3.00;;;5.40;99.90;;;;;;5091853;28;20044;-62
2024/01/30 09:50:13;;;;;;;10.55;3.30;;;5.50;99.90;;;;;;5080745;28;20048;-73
2024/01/30 09:52:41;;;;;;;5.63;2.20;;;5.50;99.90;;;;;;5076002;28;20062;-72
2024/01/30 09:55:09;;;;;;;8.45;3.00;;;5.50;99.90;;;;;;5109316;28;20044;-74
2024/01/30 09:57:37;;;;;;;13.77;3.40;;;5.50;99.90;;;;;;5099260;28;20048;-75
2024/01/30 10:00:09;;;;;;;5.43;2.83;;;5.50;99.90;;;;;;5090199;28;20051;-72
2024/01/30 10:02:40;;;;;;;4.22;1.98;;;5.50;99.90;;;;;;5088827;28;20047;-70
2024/01/30 10:05:08;;;;;;;8.57;1.92;;;5.50;99.90;;;;;;5073139;28;20049;-73
2024/01/30 10:07:36;;;;;;;6.05;2.80;;;5.60;99.90;;;;;;5073204;28;20075;-71
2024/01/30 10:10:06;;;;;;;4.93;2.47;;;5.60;99.90;;;;;;5087443;28;20048;-65
2024/01/30 10:12:34;;;;;;;5.93;2.10;;;5.60;99.90;;;;;;5084099;28;20191;-74
2024/01/30 10:15:02;;;;;;;5.20;2.10;;;5.60;99.90;;;;;;5081419;28;20365;-72
2024/01/30 10:17:30;;;;;;;7.50;2.30;;;5.60;99.90;;;;;;5074473;28;20048;-68
2024/01/30 10:20:05;;;;;;;6.20;1.60;;;5.70;99.90;;;;;;5089228;28;20055;-65
2024/01/30 10:22:33;;;;;;;6.55;2.70;;;5.70;99.90;;;;;;5091575;28;20040;-65
2024/01/30 10:25:01;;;;;;;5.05;2.35;;;5.70;99.90;;;;;;5090114;28;20036;-72
2024/01/30 10:27:33;;;;;;;5.38;2.20;;;5.80;99.90;;;;;;5089788;28;20487;-67
2024/01/30 10:30:01;;;;;;;7.80;2.45;;;5.80;99.90;;;;;;5077106;28;20067;-66
2024/01/30 10:32:30;;;;;;;5.88;2.40;;;5.80;99.90;;;;;;5072875;28;20055;-66
2024/01/30 10:34:58;;;;;;;10.00;3.42;;;5.80;99.90;;;;;;5075200;28;20052;-64
2024/01/30 10:37:27;;;;;;;4.50;2.75;;;5.90;99.90;;;;;;5084647;28;20395;-67
2024/01/30 10:39:58;;;;;;;6.43;2.95;;;5.90;99.90;;;;;;5091126;28;20130;-70
2024/01/30 10:42:29;;;;;;;7.72;2.50;;;5.90;99.90;;;;;;5090742;28;20051;-70
2024/01/30 10:44:59;;;;;;;11.05;3.05;;;5.90;99.90;;;;;;5098419;28;20063;-70
2024/01/30 10:47:30;;;;;;;4.45;2.42;;;5.90;99.90;;;;;;5089314;28;20044;-67
2024/01/30 10:49:58;;;;;;;9.35;3.25;;;5.90;99.90;;;;;;5086455;28;20055;-74
2024/01/30 10:52:27;;;;;;;4.63;2.67;;;5.90;99.90;;;;;;5074343;28;20040;-74
2024/01/30 10:54:56;;;;;;;3.88;1.75;;;5.90;99.90;;;;;;5083726;28;20044;-73
2024/01/30 10:57:27;;;;;;;4.03;1.85;;;5.90;99.90;;;;;;5069220;28;20051;-71
2024/01/30 11:00:01;;;;;;;4.28;1.85;;;6.00;99.90;;;;;;5087878;28;20059;-74
2024/01/30 11:02:30;;;;;;;4.80;2.10;;;6.00;99.90;;;;;;5089306;28;20047;-70
2024/01/30 11:04:59;;;;;;;3.95;1.50;;;6.00;99.90;;;;;;5070582;28;20051;-73
2024/01/30 11:07:29;;;;;;;6.55;1.70;;;6.00;99.90;;;;;;5069426;28;20059;-75
2024/01/30 11:09:57;;;;;;;;;;;6.00;99.90;;;;;;5086936;28;20063;-71
2024/01/30 11:12:25;;;;;;;3.80;1.50;;;6.10;99.90;;;;;;5069880;28;19924;-73
2024/01/30 11:15:08;;;;;;;4.65;1.90;;;6.20;99.90;;;;;;5085372;28;20064;-74
2024/01/30 11:17:42;;;;;;;6.18;1.70;;;6.20;99.90;;;;;;5087572;28;20048;-64
2024/01/30 11:20:11;;;;;;;6.97;2.00;;;6.20;99.90;;;;;;5071260;28;20399;-67
2024/01/30 11:22:41;;;;;;;7.75;1.92;;;6.30;99.90;;;;;;5081308;28;20056;-65
2024/01/30 11:25:17;;;;;;;2.33;1.40;;;6.40;99.90;;;;;;5086321;28;20215;-67
2024/01/30 11:27:46;;;;;;;1.90;1.58;;;6.60;99.90;;;;;;5081194;28;20052;-71
2024/01/30 11:30:28;;;;;;;6.78;1.42;;;6.60;99.90;;;;;;5057189;28;20056;-67
2024/01/30 11:33:05;;;;;;;3.05;1.08;;;6.60;99.90;;;;;;5076700;28;20506;-72
2024/01/30 11:35:39;;;;;;;3.30;1.65;;;6.60;99.90;;;;;;5082423;28;20484;-69
2024/01/30 11:38:09;;;;;;;8.27;1.65;;;6.60;99.90;;;;;;5083768;28;20411;-66
2024/01/30 11:40:38;;;;;;;4.40;1.50;;;6.60;99.90;;;;;;5088492;28;20052;-73
2024/01/30 11:43:08;;;;;;;8.50;1.80;;;6.60;99.90;;;;;;5081428;28;20040;-71
2024/01/30 11:45:37;;;;;;;4.15;1.80;;;6.50;99.90;;;;;;5069451;28;20048;-65
2024/01/30 11:48:07;;;;;;;3.97;1.73;;;6.50;99.90;;;;;;5083932;28;20036;-68
2024/01/30 11:50:37;;;;;;;4.55;1.67;;;6.50;99.90;;;;;;5083876;28;20056;-69
2024/01/30 11:53:06;;;;;;;5.22;1.90;;;6.50;99.90;;;;;;5086065;28;20046;-69
2024/01/30 11:55:36;;;;;;;6.75;2.22;;;6.50;99.90;;;;;;5077827;28;20060;-70
2024/01/30 11:58:04;;;;;;;;;;;6.40;99.90;;;;;;5076079;28;20044;-70
2024/01/30 12:00:33;;;;;;;5.82;1.75;;;6.40;99.90;;;;;;5089513;28;19920;-67
2024/01/30 12:03:01;;;;;;;2.42;1.95;;;6.40;99.90;;;;;;5094062;28;20047;-66
2024/01/30 12:05:29;;;;;;;5.97;1.85;;;6.40;99.90;;;;;;5089255;28;20399;-70
2024/01/30 12:08:00;;;;;;;4.30;1.70;;;6.40;99.90;;;;;;5091323;28;20062;-64
2024/01/30 12:10:30;;;;;;;3.75;1.35;;;6.40;99.90;;;;;;5098440;28;20055;-64
2024/01/30 12:12:58;;;;;;;4.22;1.77;;;6.40;99.90;;;;;;5088813;28;20056;-64
2024/01/30 12:15:26;;;;;;;3.75;1.80;;;6.40;99.90;;;;;;5109637;28;20490;-64
2024/01/30 12:18:04;;;;;;;4.93;1.52;;;6.50;99.90;;;;;;5084216;28;20072;-67
2024/01/30 12:20:32;;;;;;;2.20;1.30;;;6.50;99.90;;;;;;5078388;28;20506;-71
2024/01/30 12:23:00;;;;;;;2.95;1.25;;;6.60;99.90;;;;;;5077169;28;20047;-71
2024/01/30 12:25:28;;;;;;;4.30;1.42;;;6.80;99.90;;;;;;5089623;28;20047;-65
2024/01/30 12:27:56;;;;;;;3.45;1.60;;;7.10;99.90;;;;;;5087989;28;20048;-71
2024/01/30 12:30:23;;;;;;;8.50;2.97;;;7.40;99.90;;;;;;5080038;28;20044;-69
2024/01/30 12:32:51;;;;;;;4.68;1.60;;;8.00;99.90;;;;;;5075977;28;20472;-68
2024/01/30 12:35:20;;;;;;;4.93;2.05;;;8.50;99.90;;;;;;5088554;28;20040;-73
2024/01/30 12:37:50;;;;;;;5.57;2.05;;;8.70;99.90;;;;;;5084311;28;20050;-63
2024/01/30 12:40:18;;;;;;;4.13;2.07;;;8.60;99.90;;;;;;5109118;28;20044;-63
2024/01/30 12:42:50;;;;;;;4.78;2.42;;;8.50;99.90;;;;;;5093220;28;20503;-63
2024/01/30 12:45:21;;;;;;;7.30;3.05;;;8.30;99.90;;;;;;5088532;28;20051;-69
2024/01/30 12:47:50;;;;;;;5.15;2.40;;;8.10;99.90;;;;;;5088557;28;20052;-69
2024/01/30 12:50:18;;;;;;;3.80;2.50;;;8.00;99.90;;;;;;5084293;28;20051;-64
2024/01/30 12:52:46;;;;;;;4.03;2.00;;;7.90;99.90;;;;;;5075104;28;20243;-62
2024/01/30 12:55:17;;;;;;;7.10;2.88;;;7.80;99.90;;;;;;5070536;28;20056;-62
2024/01/30 12:57:45;;;;;;;6.50;3.58;;;7.70;99.90;;;;;;5071940;28;20052;-63
2024/01/30 13:00:14;;;;;;;5.63;2.25;;;7.70;99.90;;;;;;5088558;28;20055;-69